Time;durP1;ratioP1;P1;durP2;ratioP2;P2;SDS_P1;SDS_P2;PMS_P1;PMS_P2;Temp;Humidity;BMP_temperature;BMP_pressure;BME280_temperature;BME280_humidity;BME280_pressure;Samples;Min_cycle;Max_cycle;Signal;HPM_P1;HPM_P2
2023/09/15 00:00:41;;;;;;;0.60;0.60;;;11.30;99.90;;;;;;5115277;28;20251;-74
2023/09/15 00:03:07;;;;;;;0.70;0.70;;;11.60;99.90;;;;;;5114509;28;20055;-75
2023/09/15 00:05:37;;;;;;;0.45;0.45;;;11.30;99.90;;;;;;5114546;27;20040;-74
2023/09/15 00:08:04;;;;;;;0.40;0.40;;;11.30;99.90;;;;;;5114551;28;20120;-75
2023/09/15 00:10:31;;;;;;;0.50;0.50;;;11.30;99.90;;;;;;5114423;28;20047;-74
2023/09/15 00:12:58;;;;;;;0.77;0.70;;;11.60;99.90;;;;;;5114322;28;20440;-74
2023/09/15 00:15:24;;;;;;;0.50;0.50;;;11.20;99.90;;;;;;5114264;28;20040;-74
2023/09/15 00:17:50;;;;;;;0.40;0.40;;;11.20;99.90;;;;;;5114264;28;20050;-75
2023/09/15 00:20:16;;;;;;;0.40;0.40;;;11.20;99.90;;;;;;5114308;28;20122;-74
2023/09/15 00:22:49;;;;;;;0.60;0.60;;;11.10;99.90;;;;;;5113511;28;20047;-75
2023/09/15 00:25:22;;;;;;;0.60;0.60;;;11.20;99.90;;;;;;5114247;28;20043;-75
2023/09/15 00:27:51;;;;;;;0.50;0.50;;;11.10;99.90;;;;;;5114197;28;20086;-75
2023/09/15 00:30:19;;;;;;;0.45;0.45;;;11.10;99.90;;;;;;5114159;28;20510;-74
2023/09/15 00:32:45;;;;;;;0.32;0.32;;;11.00;99.90;;;;;;5113321;28;20054;-75
2023/09/15 00:35:12;;;;;;;3.05;0.50;;;11.10;99.90;;;;;;5114043;28;20115;-74
2023/09/15 00:37:38;;;;;;;0.50;0.50;;;11.00;99.90;;;;;;5114188;28;20050;-74
2023/09/15 00:40:06;;;;;;;0.70;0.70;;;11.00;99.90;;;;;;5113989;28;20039;-74
2023/09/15 00:42:32;;;;;;;0.40;0.40;;;11.00;99.90;;;;;;5113958;28;20039;-74
2023/09/15 00:45:04;;;;;;;0.50;0.50;;;10.90;99.90;;;;;;5114212;28;20131;-74
2023/09/15 00:47:31;;;;;;;0.50;0.50;;;10.90;99.90;;;;;;5114091;28;20044;-75
2023/09/15 00:49:58;;;;;;;0.43;0.43;;;10.90;99.90;;;;;;5113769;28;20050;-74
2023/09/15 00:52:23;;;;;;;0.40;0.40;;;10.90;99.90;;;;;;5113863;28;20052;-74
2023/09/15 00:54:49;;;;;;;0.50;0.50;;;10.80;99.90;;;;;;5113728;28;20343;-74
2023/09/15 00:57:15;;;;;;;0.57;0.50;;;10.80;99.90;;;;;;5114039;28;20455;-75
2023/09/15 00:59:41;;;;;;;0.47;0.47;;;10.70;99.90;;;;;;5114200;28;20040;-75
2023/09/15 01:02:07;;;;;;;0.50;0.50;;;10.70;99.90;;;;;;5113565;28;20387;-74
2023/09/15 01:04:33;;;;;;;0.40;0.40;;;10.50;99.90;;;;;;5113900;28;20344;-74
2023/09/15 01:07:02;;;;;;;0.40;0.40;;;10.60;99.90;;;;;;5113828;28;20042;-74
2023/09/15 01:09:29;;;;;;;0.40;0.40;;;10.50;99.90;;;;;;5113770;28;20300;-74
2023/09/15 01:11:55;;;;;;;;;;;10.50;99.90;;;;;;5113821;28;20462;-74
2023/09/15 01:14:21;;;;;;;0.60;0.60;;;10.50;99.90;;;;;;5113645;28;19922;-74
2023/09/15 01:16:54;;;;;;;0.43;0.43;;;10.50;99.90;;;;;;5114008;28;20028;-74
2023/09/15 01:19:38;;;;;;;0.40;0.40;;;10.60;99.90;;;;;;5113906;28;20035;-75
2023/09/15 01:22:19;;;;;;;0.40;0.40;;;10.50;99.90;;;;;;5113765;28;20075;-74
2023/09/15 01:25:05;;;;;;;0.50;0.50;;;10.40;99.90;;;;;;5114100;28;20409;-74
2023/09/15 01:27:41;;;;;;;0.40;0.40;;;10.40;99.90;;;;;;5113410;28;20117;-74
2023/09/15 01:30:07;;;;;;;0.50;0.50;;;10.40;99.90;;;;;;5113712;28;20039;-74
2023/09/15 01:32:34;;;;;;;0.50;0.50;;;10.40;99.90;;;;;;5113657;28;20449;-74
2023/09/15 01:35:04;;;;;;;0.50;0.50;;;10.40;99.90;;;;;;5117044;28;20463;-74
2023/09/15 01:37:29;;;;;;;0.57;0.57;;;10.40;99.90;;;;;;5117413;28;20040;-74
2023/09/15 01:39:55;;;;;;;0.45;0.45;;;10.30;99.90;;;;;;5117493;28;20074;-74
2023/09/15 01:42:21;;;;;;;0.43;0.43;;;10.40;99.90;;;;;;5117292;28;20032;-75
2023/09/15 01:44:46;;;;;;;0.50;0.50;;;10.50;99.90;;;;;;5117263;28;20409;-74
2023/09/15 01:47:18;;;;;;;0.65;0.65;;;10.30;99.90;;;;;;5117260;28;20580;-74
2023/09/15 01:49:44;;;;;;;0.40;0.40;;;10.30;99.90;;;;;;5117220;28;20122;-74
2023/09/15 01:52:11;;;;;;;0.50;0.50;;;10.30;99.90;;;;;;5117124;28;20073;-74
2023/09/15 01:54:36;;;;;;;0.50;0.50;;;10.40;99.90;;;;;;5116746;28;20052;-75
2023/09/15 01:57:03;;;;;;;0.50;0.50;;;10.30;99.90;;;;;;5117038;28;20479;-74
2023/09/15 01:59:28;;;;;;;0.80;0.70;;;10.30;99.90;;;;;;5116950;28;20035;-74
2023/09/15 02:01:54;;;;;;;0.50;0.50;;;10.60;99.90;;;;;;5115892;28;20050;-74
2023/09/15 02:04:20;;;;;;;0.50;0.50;;;10.20;99.90;;;;;;5116863;28;20047;-74
2023/09/15 02:06:45;;;;;;;0.50;0.50;;;10.20;99.90;;;;;;5117071;28;20463;-74
2023/09/15 02:09:14;;;;;;;0.70;0.70;;;10.20;99.90;;;;;;5116767;28;20051;-75
2023/09/15 02:11:40;;;;;;;0.50;0.50;;;10.20;99.90;;;;;;5116623;28;20051;-74
2023/09/15 02:14:06;;;;;;;0.52;0.52;;;10.20;99.90;;;;;;5116632;28;20039;-75
2023/09/15 02:16:31;;;;;;;0.50;0.50;;;10.10;99.90;;;;;;5117062;28;20059;-74
2023/09/15 02:18:57;;;;;;;0.50;0.50;;;10.10;99.90;;;;;;5116855;28;20047;-75
2023/09/15 02:21:23;;;;;;;0.50;0.50;;;10.10;99.90;;;;;;5116937;28;20061;-74
2023/09/15 02:23:49;;;;;;;0.60;0.60;;;10.00;99.90;;;;;;5116734;28;20031;-74
2023/09/15 02:26:14;;;;;;;0.50;0.50;;;10.00;99.90;;;;;;5116160;28;20079;-75
2023/09/15 02:28:40;;;;;;;0.50;0.50;;;10.00;99.90;;;;;;5116456;28;20130;-74
2023/09/15 02:31:06;;;;;;;1.02;0.90;;;10.00;99.90;;;;;;5116369;28;20063;-74
2023/09/15 02:33:32;;;;;;;0.50;0.50;;;10.00;99.90;;;;;;5116283;28;20069;-74
2023/09/15 02:35:58;;;;;;;0.47;0.47;;;10.00;99.90;;;;;;5116162;28;20035;-74
2023/09/15 02:38:24;;;;;;;0.50;0.50;;;10.00;99.90;;;;;;5116187;28;20043;-75
2023/09/15 02:40:49;;;;;;;0.50;0.50;;;10.00;99.90;;;;;;5116175;28;20046;-74
2023/09/15 02:43:15;;;;;;;0.63;0.63;;;10.00;99.90;;;;;;5098197;28;20055;-75
2023/09/15 02:45:40;;;;;;;0.60;0.60;;;10.70;99.90;;;;;;5115204;28;20070;-74
2023/09/15 02:48:06;;;;;;;0.52;0.52;;;10.00;99.90;;;;;;5116014;28;20031;-74
2023/09/15 02:50:32;;;;;;;0.60;0.60;;;10.00;99.90;;;;;;5116088;28;20036;-74
2023/09/15 02:52:59;;;;;;;0.50;0.50;;;10.00;99.90;;;;;;5115847;28;20035;-74
2023/09/15 02:55:24;;;;;;;0.63;0.63;;;10.00;99.90;;;;;;5115728;28;20043;-74
2023/09/15 02:57:52;;;;;;;0.80;0.60;;;10.00;99.90;;;;;;5115879;27;20048;-74
2023/09/15 03:00:19;;;;;;;0.55;0.55;;;10.00;99.90;;;;;;5116213;27;20086;-74
2023/09/15 03:02:45;;;;;;;0.55;0.55;;;9.90;99.90;;;;;;5115746;28;20031;-75
2023/09/15 03:05:11;;;;;;;0.55;0.55;;;9.90;99.90;;;;;;5115673;28;20479;-74
2023/09/15 03:07:39;;;;;;;0.70;0.57;;;9.90;99.90;;;;;;5115743;28;20104;-74
2023/09/15 03:10:09;;;;;;;0.50;0.50;;;9.90;99.90;;;;;;5115782;27;20052;-74
2023/09/15 03:12:36;;;;;;;0.65;0.65;;;9.90;99.90;;;;;;5115469;28;20040;-74
2023/09/15 03:15:06;;;;;;;0.70;0.70;;;9.90;99.90;;;;;;5115444;28;20042;-74
2023/09/15 03:17:33;;;;;;;0.60;0.60;;;9.90;99.90;;;;;;5115814;28;20048;-75
2023/09/15 03:19:58;;;;;;;0.50;0.50;;;9.90;99.90;;;;;;5115327;28;20043;-75
2023/09/15 03:22:24;;;;;;;0.98;0.60;;;9.90;99.90;;;;;;5115512;28;20044;-74
2023/09/15 03:24:50;;;;;;;0.50;0.50;;;9.80;99.90;;;;;;5115288;28;20043;-74
2023/09/15 03:27:16;;;;;;;0.57;0.57;;;9.90;99.90;;;;;;5115148;28;20035;-74
2023/09/15 03:29:41;;;;;;;0.60;0.60;;;9.80;99.90;;;;;;5115536;28;20036;-74
2023/09/15 03:32:07;;;;;;;0.60;0.60;;;9.80;99.90;;;;;;5115494;28;20089;-74
2023/09/15 03:34:33;;;;;;;0.50;0.50;;;9.80;99.90;;;;;;5114980;28;20103;-75
2023/09/15 03:37:01;;;;;;;0.60;0.60;;;9.80;99.90;;;;;;5115028;28;20075;-74
2023/09/15 03:39:27;;;;;;;0.60;0.60;;;9.70;99.90;;;;;;5115205;28;20035;-74
2023/09/15 03:41:52;;;;;;;0.60;0.60;;;10.00;99.90;;;;;;5114919;28;20088;-74
2023/09/15 03:44:19;;;;;;;0.50;0.50;;;9.70;99.90;;;;;;5114862;28;20043;-74
2023/09/15 03:46:45;;;;;;;0.68;0.68;;;9.70;99.90;;;;;;5115406;28;20048;-75
2023/09/15 03:49:10;;;;;;;0.70;0.70;;;9.70;99.90;;;;;;5114727;28;20035;-74
2023/09/15 03:51:36;;;;;;;0.57;0.57;;;9.80;99.90;;;;;;5114808;28;20039;-74
2023/09/15 03:54:02;;;;;;;0.60;0.60;;;9.70;99.90;;;;;;5114712;28;20516;-74
2023/09/15 03:56:28;;;;;;;0.60;0.60;;;9.60;99.90;;;;;;5114545;27;20103;-74
2023/09/15 03:58:55;;;;;;;0.60;0.60;;;9.60;99.90;;;;;;5114622;28;20368;-74
2023/09/15 04:01:23;;;;;;;0.60;0.60;;;10.10;99.90;;;;;;5114514;28;20039;-74
2023/09/15 04:03:49;;;;;;;0.50;0.50;;;9.60;99.90;;;;;;5114570;28;20084;-74
2023/09/15 04:06:16;;;;;;;0.60;0.60;;;9.60;99.90;;;;;;5114547;28;20074;-74
2023/09/15 04:08:42;;;;;;;0.60;0.60;;;9.60;99.90;;;;;;5112885;28;20100;-74
2023/09/15 04:11:07;;;;;;;0.90;0.90;;;9.50;99.90;;;;;;5114135;28;20047;-74
2023/09/15 04:13:33;;;;;;;0.60;0.60;;;9.50;99.90;;;;;;5114465;28;20379;-74
2023/09/15 04:16:00;;;;;;;0.55;0.55;;;9.50;99.90;;;;;;5114386;28;20042;-74
2023/09/15 04:18:26;;;;;;;0.60;0.60;;;9.50;99.90;;;;;;5114373;28;20425;-74
2023/09/15 04:20:53;;;;;;;0.60;0.60;;;9.40;99.90;;;;;;5114382;28;20038;-74
2023/09/15 04:23:19;;;;;;;0.60;0.60;;;9.40;99.90;;;;;;5114302;28;20048;-74
2023/09/15 04:25:45;;;;;;;0.57;0.57;;;9.40;99.90;;;;;;5096232;28;20043;-74
2023/09/15 04:28:12;;;;;;;0.50;0.50;;;9.40;99.90;;;;;;5114264;28;20416;-74
2023/09/15 04:30:37;;;;;;;0.60;0.60;;;9.40;99.90;;;;;;5114566;28;20096;-74
2023/09/15 04:33:03;;;;;;;0.55;0.55;;;9.40;99.90;;;;;;5114104;28;20471;-74
2023/09/15 04:35:29;;;;;;;0.70;0.70;;;9.40;99.90;;;;;;5114028;28;20119;-75
2023/09/15 04:37:54;;;;;;;0.60;0.60;;;9.40;99.90;;;;;;5114190;28;20047;-74
2023/09/15 04:40:20;;;;;;;0.63;0.63;;;9.60;99.90;;;;;;5113763;28;20092;-74
2023/09/15 04:42:46;;;;;;;0.50;0.50;;;9.40;99.90;;;;;;5114032;28;20044;-74
2023/09/15 04:45:12;;;;;;;0.70;0.70;;;9.40;99.90;;;;;;5114044;28;20051;-74
2023/09/15 04:47:38;;;;;;;0.68;0.68;;;9.40;99.90;;;;;;5114070;28;20032;-74
2023/09/15 04:50:06;;;;;;;0.60;0.60;;;9.40;99.90;;;;;;5113797;28;20047;-75
2023/09/15 04:52:31;;;;;;;0.77;0.70;;;9.40;99.90;;;;;;5113943;28;20081;-75
2023/09/15 04:54:57;;;;;;;0.65;0.65;;;9.40;99.90;;;;;;5113849;28;20043;-74
2023/09/15 04:57:23;;;;;;;0.57;0.57;;;9.40;99.90;;;;;;5114277;28;20371;-74
2023/09/15 04:59:49;;;;;;;0.60;0.60;;;9.30;99.90;;;;;;5113826;28;20051;-74
2023/09/15 05:02:15;;;;;;;0.60;0.60;;;9.30;99.90;;;;;;5113751;28;20044;-73
2023/09/15 05:04:41;;;;;;;0.60;0.60;;;9.30;99.90;;;;;;5113782;28;20105;-74
2023/09/15 05:07:06;;;;;;;0.90;0.90;;;9.30;99.90;;;;;;5113672;28;20079;-74
2023/09/15 05:09:32;;;;;;;0.60;0.60;;;9.30;99.90;;;;;;5117518;28;20091;-74
2023/09/15 05:11:58;;;;;;;0.50;0.50;;;9.30;99.90;;;;;;5117951;28;20464;-74
2023/09/15 05:14:24;;;;;;;0.70;0.70;;;9.30;99.90;;;;;;5117859;28;20031;-75
2023/09/15 05:16:49;;;;;;;0.80;0.80;;;9.40;99.90;;;;;;5117710;28;20051;-75
2023/09/15 05:19:15;;;;;;;0.60;0.60;;;9.40;99.90;;;;;;5117828;28;20089;-73
2023/09/15 05:21:41;;;;;;;1.17;0.80;;;9.40;99.90;;;;;;5117612;28;20108;-74
2023/09/15 05:24:07;;;;;;;0.70;0.70;;;9.40;99.90;;;;;;5117586;28;20436;-74
2023/09/15 05:26:34;;;;;;;0.57;0.57;;;9.30;99.90;;;;;;5117573;28;20047;-71
2023/09/15 05:29:02;;;;;;;0.75;0.75;;;9.40;99.90;;;;;;5117555;28;20461;-72
2023/09/15 05:31:28;;;;;;;0.60;0.60;;;9.40;99.90;;;;;;5117476;28;20054;-71
2023/09/15 05:33:55;;;;;;;0.60;0.60;;;9.30;99.90;;;;;;5117070;28;20035;-72
2023/09/15 05:36:21;;;;;;;0.60;0.60;;;9.30;99.90;;;;;;5117347;28;20040;-71
2023/09/15 05:38:48;;;;;;;0.70;0.70;;;9.50;99.90;;;;;;5117269;28;20118;-72
2023/09/15 05:41:14;;;;;;;0.63;0.63;;;9.40;99.90;;;;;;5116952;28;20040;-74
2023/09/15 05:43:40;;;;;;;1.42;1.33;;;9.40;99.90;;;;;;5117259;28;20039;-71
2023/09/15 05:46:06;;;;;;;0.60;0.60;;;9.40;99.90;;;;;;5117580;27;20039;-71
2023/09/15 05:48:32;;;;;;;0.60;0.60;;;9.40;99.90;;;;;;5117155;28;20050;-71
2023/09/15 05:50:57;;;;;;;0.60;0.60;;;9.50;99.90;;;;;;5116818;28;20031;-72
2023/09/15 05:53:23;;;;;;;0.60;0.60;;;9.50;99.90;;;;;;5117252;28;20038;-72
2023/09/15 05:55:49;;;;;;;0.60;0.60;;;9.50;99.90;;;;;;5116931;28;20455;-72
2023/09/15 05:58:14;;;;;;;0.60;0.60;;;9.50;99.90;;;;;;5117107;28;20046;-71
2023/09/15 06:00:43;;;;;;;0.60;0.60;;;9.60;99.90;;;;;;5116692;28;20042;-74
2023/09/15 06:03:09;;;;;;;0.55;0.55;;;9.60;99.90;;;;;;5116863;28;20039;-73
2023/09/15 06:05:35;;;;;;;0.50;0.50;;;9.60;99.90;;;;;;5116912;28;20039;-76
2023/09/15 06:08:03;;;;;;;0.95;0.93;;;9.70;99.90;;;;;;5116585;28;20046;-76
2023/09/15 06:10:29;;;;;;;0.68;0.68;;;9.70;99.90;;;;;;5116824;28;20051;-73
2023/09/15 06:12:54;;;;;;;0.73;0.73;;;9.70;99.90;;;;;;5117220;28;20039;-75
2023/09/15 06:15:21;;;;;;;0.60;0.60;;;9.70;99.90;;;;;;5116707;28;20515;-76
2023/09/15 06:17:48;;;;;;;0.60;0.60;;;9.80;99.90;;;;;;5116659;28;20090;-74
2023/09/15 06:20:13;;;;;;;0.60;0.60;;;9.80;99.90;;;;;;5114825;28;20048;-74
2023/09/15 06:22:39;;;;;;;0.60;0.60;;;9.90;99.90;;;;;;5116251;28;20046;-74
2023/09/15 06:25:05;;;;;;;0.50;0.50;;;9.90;99.90;;;;;;5116363;28;20044;-75
2023/09/15 06:27:33;;;;;;;0.60;0.60;;;9.90;99.90;;;;;;5115013;28;20036;-74
2023/09/15 06:29:59;;;;;;;1.42;1.13;;;10.00;99.90;;;;;;5116697;28;20379;-75
2023/09/15 06:32:25;;;;;;;0.70;0.60;;;10.00;99.90;;;;;;5116294;28;20113;-74
2023/09/15 06:34:50;;;;;;;0.50;0.50;;;10.10;99.90;;;;;;5115895;28;20451;-75
2023/09/15 06:37:16;;;;;;;0.70;0.70;;;10.20;99.90;;;;;;5116266;28;20035;-75
2023/09/15 06:39:42;;;;;;;0.50;0.50;;;10.20;99.90;;;;;;5115942;28;20413;-76
2023/09/15 06:42:08;;;;;;;0.60;0.60;;;10.30;99.90;;;;;;5116051;28;20074;-79
2023/09/15 06:44:36;;;;;;;0.50;0.50;;;10.40;99.90;;;;;;5116063;27;20031;-73
2023/09/15 06:47:02;;;;;;;0.50;0.50;;;10.70;99.90;;;;;;5115804;28;20471;-73
2023/09/15 06:49:30;;;;;;;0.70;0.70;;;10.60;99.90;;;;;;5115974;28;20119;-76
2023/09/15 06:51:56;;;;;;;0.55;0.55;;;10.70;99.90;;;;;;5115968;28;20052;-74
2023/09/15 06:54:21;;;;;;;0.63;0.63;;;10.80;99.90;;;;;;5115604;28;20129;-75
2023/09/15 06:56:47;;;;;;;0.50;0.50;;;11.00;99.90;;;;;;5116145;28;20085;-75
2023/09/15 06:59:13;;;;;;;0.60;0.60;;;11.10;99.90;;;;;;5115862;28;20043;-76
2023/09/15 07:01:39;;;;;;;0.82;0.60;;;11.20;99.90;;;;;;5115728;28;20046;-75
2023/09/15 07:04:06;;;;;;;0.60;0.60;;;11.90;99.90;;;;;;5115699;27;20043;-75
2023/09/15 07:06:31;;;;;;;;;;;11.50;99.90;;;;;;5116160;28;20039;-75
2023/09/15 07:08:57;;;;;;;1.13;0.70;;;11.60;99.90;;;;;;5115601;28;19916;-75
2023/09/15 07:11:23;;;;;;;0.60;0.60;;;11.70;99.90;;;;;;5115547;28;20036;-75
2023/09/15 07:13:49;;;;;;;0.98;0.73;;;11.90;99.90;;;;;;5115370;28;20040;-75
2023/09/15 07:16:14;;;;;;;0.40;0.40;;;12.00;99.90;;;;;;5115304;28;20027;-75
2023/09/15 07:18:40;;;;;;;0.50;0.50;;;12.10;99.90;;;;;;5115651;28;20078;-76
2023/09/15 07:21:06;;;;;;;0.50;0.50;;;12.20;99.90;;;;;;5115335;28;20455;-75
2023/09/15 07:23:31;;;;;;;0.70;0.57;;;12.30;99.90;;;;;;5115359;28;20027;-75
2023/09/15 07:25:57;;;;;;;0.60;0.60;;;12.40;99.90;;;;;;5115318;28;20348;-76
2023/09/15 07:28:23;;;;;;;0.95;0.70;;;12.60;99.90;;;;;;5115249;28;20449;-75
2023/09/15 07:30:49;;;;;;;0.70;0.60;;;12.80;99.90;;;;;;5114803;28;20115;-75
2023/09/15 07:33:15;;;;;;;0.93;0.70;;;12.90;99.90;;;;;;5115103;28;20087;-76
2023/09/15 07:35:41;;;;;;;0.40;0.40;;;13.00;99.90;;;;;;5115071;28;20028;-75
2023/09/15 07:38:07;;;;;;;0.40;0.40;;;13.10;99.90;;;;;;5115004;28;20066;-73
2023/09/15 07:40:33;;;;;;;0.70;0.70;;;13.20;99.90;;;;;;5114994;28;20459;-72
2023/09/15 07:42:59;;;;;;;0.65;0.65;;;13.30;99.90;;;;;;5115032;28;20039;-74
2023/09/15 07:45:26;;;;;;;0.50;0.50;;;13.50;99.90;;;;;;5115144;28;20066;-74
2023/09/15 07:47:51;;;;;;;0.40;0.40;;;13.60;99.90;;;;;;5114894;28;20039;-74
2023/09/15 07:50:17;;;;;;;0.60;0.60;;;13.70;99.90;;;;;;5114737;28;20048;-74
2023/09/15 07:52:46;;;;;;;0.60;0.60;;;13.80;99.90;;;;;;5114503;28;20047;-75
2023/09/15 07:55:12;;;;;;;0.47;0.47;;;13.90;99.90;;;;;;5114660;28;20537;-74
2023/09/15 07:57:39;;;;;;;0.40;0.40;;;14.00;99.90;;;;;;5115099;28;20478;-72
2023/09/15 08:00:06;;;;;;;0.60;0.60;;;14.20;99.90;;;;;;5114771;28;20040;-77
2023/09/15 08:02:32;;;;;;;0.32;0.32;;;14.20;99.90;;;;;;5113402;28;20046;-73
2023/09/15 08:04:58;;;;;;;0.50;0.50;;;14.30;99.90;;;;;;5114284;28;20114;-73
2023/09/15 08:07:24;;;;;;;0.40;0.40;;;14.50;99.90;;;;;;5113054;28;20092;-81
2023/09/15 08:09:50;;;;;;;0.38;0.38;;;14.60;99.90;;;;;;5113406;28;20528;-75
2023/09/15 08:12:19;;;;;;;0.40;0.40;;;14.80;99.90;;;;;;5114823;28;20409;-75
2023/09/15 08:14:45;;;;;;;0.40;0.40;;;14.90;99.90;;;;;;5113036;28;20382;-75
2023/09/15 08:17:12;;;;;;;0.40;0.40;;;15.00;99.90;;;;;;5114266;28;20089;-75
2023/09/15 08:19:37;;;;;;;0.30;0.30;;;15.10;99.90;;;;;;5114356;28;20077;-75
2023/09/15 08:22:03;;;;;;;0.55;0.55;;;15.20;99.90;;;;;;5114237;28;20474;-75
2023/09/15 08:24:29;;;;;;;0.40;0.40;;;15.30;99.90;;;;;;5114830;28;20035;-75
2023/09/15 08:26:54;;;;;;;0.50;0.50;;;15.40;99.90;;;;;;5114255;28;20050;-76
2023/09/15 08:29:20;;;;;;;0.50;0.50;;;15.50;99.90;;;;;;5114179;28;20039;-75
2023/09/15 08:31:46;;;;;;;0.95;0.93;;;15.60;99.90;;;;;;5114170;28;20107;-76
2023/09/15 08:34:12;;;;;;;0.40;0.40;;;15.70;99.90;;;;;;5114171;28;20050;-76
2023/09/15 08:36:38;;;;;;;0.40;0.40;;;15.70;99.90;;;;;;5114104;28;20047;-76
2023/09/15 08:39:04;;;;;;;0.68;0.63;;;15.80;99.90;;;;;;5114383;28;20036;-76
2023/09/15 08:41:34;;;;;;;0.50;0.50;;;15.90;99.90;;;;;;5114118;28;20044;-76
2023/09/15 08:44:00;;;;;;;0.45;0.45;;;15.90;99.90;;;;;;5113142;28;20439;-76
2023/09/15 08:46:29;;;;;;;0.43;0.40;;;16.10;99.90;;;;;;5114093;28;20035;-76
2023/09/15 08:48:57;;;;;;;0.30;0.30;;;16.20;99.90;;;;;;5114021;28;20084;-76
2023/09/15 08:51:24;;;;;;;0.30;0.30;;;16.30;99.90;;;;;;5113907;28;20082;-76
2023/09/15 08:53:51;;;;;;;;;;;16.40;99.90;;;;;;5114568;28;20047;-78
2023/09/15 08:56:17;;;;;;;0.43;0.43;;;16.50;99.90;;;;;;5113887;28;19926;-75
2023/09/15 08:58:44;;;;;;;1.13;0.73;;;16.60;99.90;;;;;;5113645;28;20126;-74
2023/09/15 09:01:10;;;;;;;0.73;0.73;;;16.60;99.90;;;;;;5113821;28;20040;-74
2023/09/15 09:03:38;;;;;;;0.40;0.40;;;16.80;99.90;;;;;;5113826;28;20122;-74
2023/09/15 09:06:09;;;;;;;0.40;0.40;;;16.90;99.90;;;;;;5113745;28;20035;-74
2023/09/15 09:08:37;;;;;;;0.30;0.30;;;16.90;99.90;;;;;;5114115;28;20048;-74
2023/09/15 09:11:03;;;;;;;0.40;0.40;;;17.00;99.90;;;;;;5113539;28;20467;-75
2023/09/15 09:13:29;;;;;;;0.30;0.30;;;17.10;99.90;;;;;;5112567;28;20047;-75
2023/09/15 09:15:55;;;;;;;0.47;0.47;;;17.10;99.90;;;;;;5113667;28;20772;-74
2023/09/15 09:18:20;;;;;;;0.47;0.47;;;17.20;99.90;;;;;;5113812;28;20069;-74
2023/09/15 09:20:49;;;;;;;0.60;0.50;;;17.30;99.90;;;;;;5113749;28;20687;-74
2023/09/15 09:23:18;;;;;;;1.15;0.45;;;17.40;99.90;;;;;;5113911;28;20475;-74
2023/09/15 09:25:45;;;;;;;0.40;0.40;;;17.50;99.90;;;;;;5113669;28;20485;-74
2023/09/15 09:28:11;;;;;;;0.30;0.30;;;17.60;99.90;;;;;;5113717;28;20039;-74
2023/09/15 09:30:36;;;;;;;0.68;0.68;;;17.70;99.90;;;;;;5113690;28;20240;-74
2023/09/15 09:33:03;;;;;;;0.33;0.33;;;17.80;99.90;;;;;;5113742;28;20043;-74
2023/09/15 09:35:29;;;;;;;0.30;0.30;;;17.90;99.90;;;;;;5113540;28;20043;-74
2023/09/15 09:37:56;;;;;;;0.30;0.30;;;17.90;99.90;;;;;;5113878;28;20043;-75
2023/09/15 09:40:22;;;;;;;0.40;0.40;;;17.90;99.90;;;;;;5113938;28;20035;-74
2023/09/15 09:42:52;;;;;;;0.40;0.40;;;18.00;99.90;;;;;;5113490;28;20043;-77
2023/09/15 09:45:17;;;;;;;0.40;0.40;;;18.10;99.90;;;;;;5112306;28;20484;-74
2023/09/15 09:47:43;;;;;;;0.40;0.40;;;18.20;99.90;;;;;;5113574;28;20047;-75
2023/09/15 09:50:10;;;;;;;0.30;0.30;;;18.30;99.90;;;;;;5113569;28;20043;-74
2023/09/15 09:52:42;;;;;;;0.30;0.30;;;18.40;99.90;;;;;;5113506;28;20036;-74
2023/09/15 09:55:10;;;;;;;0.30;0.30;;;18.40;99.90;;;;;;5115504;28;20035;-74
2023/09/15 09:57:40;;;;;;;0.52;0.45;;;18.50;99.90;;;;;;5115869;28;20077;-74
2023/09/15 10:00:09;;;;;;;0.45;0.38;;;18.60;99.90;;;;;;5116833;28;20078;-74
2023/09/15 10:02:40;;;;;;;0.45;0.45;;;18.60;99.90;;;;;;5116860;28;20371;-75
2023/09/15 10:05:07;;;;;;;0.40;0.40;;;18.70;99.90;;;;;;5116080;28;20039;-74
2023/09/15 10:07:34;;;;;;;0.50;0.50;;;18.80;99.90;;;;;;5116891;28;20039;-75
2023/09/15 10:10:00;;;;;;;0.50;0.50;;;18.80;99.90;;;;;;5117081;28;20047;-74
2023/09/15 10:12:26;;;;;;;0.40;0.40;;;18.90;99.90;;;;;;5116749;28;20042;-74
2023/09/15 10:14:52;;;;;;;0.30;0.30;;;18.90;99.90;;;;;;5116550;28;20119;-74
2023/09/15 10:17:21;;;;;;;0.30;0.30;;;19.00;99.90;;;;;;5115431;28;20055;-74
2023/09/15 10:19:48;;;;;;;0.30;0.30;;;19.00;99.90;;;;;;5116589;28;20489;-74
2023/09/15 10:22:16;;;;;;;0.32;0.32;;;19.10;99.90;;;;;;5116547;28;20051;-74
2023/09/15 10:24:47;;;;;;;0.45;0.45;;;19.10;99.90;;;;;;5116508;28;20032;-74
2023/09/15 10:27:14;;;;;;;0.20;0.20;;;19.20;99.90;;;;;;5116487;28;20119;-74
2023/09/15 10:29:42;;;;;;;;;;;19.30;99.90;;;;;;5116700;28;20043;-75
2023/09/15 10:32:08;;;;;;;0.45;0.45;;;19.30;99.90;;;;;;5116408;28;19922;-75
2023/09/15 10:34:34;;;;;;;0.30;0.30;;;19.40;99.90;;;;;;5116345;28;20035;-73
2023/09/15 10:37:03;;;;;;;0.50;0.50;;;19.50;99.90;;;;;;5116179;28;20451;-74
2023/09/15 10:39:36;;;;;;;0.30;0.30;;;19.60;99.90;;;;;;5116078;28;20039;-73
2023/09/15 10:42:10;;;;;;;0.45;0.45;;;19.70;99.90;;;;;;5114873;28;20073;-74
2023/09/15 10:44:36;;;;;;;0.30;0.30;;;19.70;99.90;;;;;;5115962;28;20455;-76
2023/09/15 10:47:01;;;;;;;0.30;0.30;;;19.70;99.90;;;;;;5114770;28;20035;-74
2023/09/15 10:49:27;;;;;;;0.60;0.60;;;19.80;99.90;;;;;;5114795;28;20045;-76
2023/09/15 10:52:00;;;;;;;0.37;0.30;;;19.80;99.90;;;;;;5114701;28;20379;-75
2023/09/15 10:54:35;;;;;;;0.52;0.52;;;19.80;99.90;;;;;;5115620;28;20406;-75
2023/09/15 10:57:02;;;;;;;0.30;0.30;;;19.80;99.90;;;;;;5115762;28;20106;-79
2023/09/15 10:59:28;;;;;;;0.45;0.45;;;19.80;99.90;;;;;;5115818;28;20039;-74
2023/09/15 11:01:55;;;;;;;0.40;0.40;;;19.80;99.90;;;;;;5115750;28;20043;-75
2023/09/15 11:04:21;;;;;;;0.30;0.30;;;19.90;99.90;;;;;;5115594;28;20047;-75
2023/09/15 11:06:52;;;;;;;0.30;0.30;;;19.90;99.90;;;;;;5114921;28;20099;-76
2023/09/15 11:09:18;;;;;;;1.13;0.68;;;20.00;99.90;;;;;;5115518;28;20452;-77
2023/09/15 11:11:49;;;;;;;0.20;0.20;;;20.00;99.90;;;;;;5115598;28;20031;-77
2023/09/15 11:14:22;;;;;;;0.40;0.40;;;20.10;99.90;;;;;;5114453;28;20082;-74
2023/09/15 11:16:51;;;;;;;0.32;0.32;;;20.20;99.90;;;;;;5115459;28;20058;-74
2023/09/15 11:19:23;;;;;;;0.32;0.32;;;20.30;99.90;;;;;;5115196;28;20047;-75
2023/09/15 11:21:49;;;;;;;0.80;0.38;;;20.40;99.90;;;;;;5114984;28;20394;-75
2023/09/15 11:24:15;;;;;;;0.93;0.50;;;20.40;99.90;;;;;;5115401;28;20048;-74
2023/09/15 11:26:50;;;;;;;0.30;0.30;;;20.50;99.90;;;;;;5115263;28;20058;-74
2023/09/15 11:29:16;;;;;;;0.65;0.55;;;20.50;99.90;;;;;;5115573;28;20043;-72
2023/09/15 11:31:44;;;;;;;0.30;0.30;;;20.60;99.90;;;;;;5115276;28;20398;-76
2023/09/15 11:34:14;;;;;;;0.28;0.28;;;20.60;99.90;;;;;;5115114;28;20065;-80
2023/09/15 11:36:41;;;;;;;0.30;0.30;;;20.70;99.90;;;;;;5114970;28;20120;-77
2023/09/15 11:39:11;;;;;;;0.65;0.65;;;20.80;99.90;;;;;;5113769;28;20412;-76
2023/09/15 11:41:38;;;;;;;0.40;0.40;;;20.80;99.90;;;;;;5113237;28;20050;-75
2023/09/15 11:44:08;;;;;;;1.23;0.77;;;20.80;99.90;;;;;;5113122;28;20100;-75
2023/09/15 11:46:39;;;;;;;0.30;0.30;;;20.80;99.90;;;;;;5113313;28;20043;-76
2023/09/15 11:49:05;;;;;;;0.40;0.40;;;20.90;99.90;;;;;;5113001;28;20092;-76
2023/09/15 11:51:31;;;;;;;0.47;0.47;;;20.90;99.90;;;;;;5113150;28;20043;-76
2023/09/15 11:53:58;;;;;;;0.52;0.50;;;20.90;99.90;;;;;;5113068;28;20046;-75
2023/09/15 11:56:26;;;;;;;0.30;0.30;;;20.90;99.90;;;;;;5114484;28;20489;-76
2023/09/15 11:58:51;;;;;;;0.40;0.40;;;21.00;99.90;;;;;;5114702;28;20031;-76
2023/09/15 12:01:18;;;;;;;0.50;0.50;;;21.00;99.90;;;;;;5114682;28;20481;-76
2023/09/15 12:03:47;;;;;;;0.20;0.20;;;21.00;99.90;;;;;;5114584;28;20039;-75
2023/09/15 12:06:16;;;;;;;0.30;0.30;;;21.00;99.90;;;;;;5114600;28;20036;-75
2023/09/15 12:08:42;;;;;;;0.20;0.20;;;20.90;99.90;;;;;;5114154;28;20043;-76
2023/09/15 12:11:11;;;;;;;0.57;0.57;;;20.90;99.90;;;;;;5114758;28;20043;-75
2023/09/15 12:13:37;;;;;;;0.65;0.50;;;21.00;99.90;;;;;;5114382;28;20093;-76
2023/09/15 12:16:04;;;;;;;0.33;0.33;;;21.00;99.90;;;;;;5114101;28;20085;-77
2023/09/15 12:18:37;;;;;;;0.30;0.30;;;21.10;99.90;;;;;;5113695;28;20044;-75
2023/09/15 12:21:12;;;;;;;0.35;0.35;;;21.20;99.90;;;;;;5114975;28;20043;-76
2023/09/15 12:23:39;;;;;;;0.30;0.30;;;21.20;99.90;;;;;;5114617;28;20093;-76
2023/09/15 12:26:04;;;;;;;0.40;0.40;;;21.20;99.90;;;;;;5114277;28;20039;-76
2023/09/15 12:28:31;;;;;;;0.33;0.33;;;21.30;99.90;;;;;;5114201;28;20043;-75
2023/09/15 12:31:00;;;;;;;0.20;0.20;;;21.30;99.90;;;;;;5114402;28;20044;-76
2023/09/15 12:33:26;;;;;;;0.40;0.40;;;21.40;99.90;;;;;;5114155;28;20061;-77
2023/09/15 12:35:57;;;;;;;0.53;0.53;;;21.40;99.90;;;;;;5114014;28;20032;-76
2023/09/15 12:38:23;;;;;;;1.15;0.35;;;21.40;99.90;;;;;;5114212;28;20039;-75
2023/09/15 12:40:50;;;;;;;0.60;0.60;;;21.50;99.90;;;;;;5113852;28;20031;-76
2023/09/15 12:43:22;;;;;;;;;;;21.50;99.90;;;;;;5114434;28;20039;-76
2023/09/15 12:45:47;;;;;;;0.57;0.57;;;21.50;99.90;;;;;;5113991;28;19919;-76
2023/09/15 12:48:13;;;;;;;0.30;0.30;;;21.60;99.90;;;;;;5114075;28;20405;-75